createdAt,value
2016-07-24T00:00:50.051Z,20.65
2016-07-24T00:01:50.075Z,20.72
2016-07-24T00:02:50.814Z,20.7
2016-07-24T00:03:50.132Z,20.67
2016-07-24T00:04:50.890Z,20.67
2016-07-24T00:05:50.206Z,20.75
2016-07-24T00:06:50.928Z,20.69
2016-07-24T00:07:50.246Z,20.75
2016-07-24T00:08:50.986Z,20.7
2016-07-24T00:09:51.011Z,20.8
2016-07-24T00:10:52.284Z,20.85
2016-07-24T00:11:50.361Z,20.77
2016-07-24T00:12:51.108Z,20.92
2016-07-24T00:13:51.121Z,20.95
2016-07-24T00:14:50.444Z,20.9
2016-07-24T00:15:50.471Z,20.95
2016-07-24T00:16:50.505Z,20.99
2016-07-24T00:17:50.526Z,21
2016-07-24T00:18:50.553Z,20.92
2016-07-24T00:19:50.584Z,21.03
2016-07-24T00:20:50.610Z,21.03
2016-07-24T00:21:50.638Z,21.14
2016-07-24T00:22:50.688Z,21.22
2016-07-24T00:23:50.695Z,21.22
2016-07-24T00:24:50.726Z,21.24
2016-07-24T00:25:50.755Z,21.27
2016-07-24T00:26:50.779Z,21.32
2016-07-24T00:27:50.812Z,21.32
2016-07-24T00:28:50.837Z,21.36
2016-07-24T00:29:50.866Z,21.29
2016-07-24T00:30:51.605Z,21.42
2016-07-24T00:31:50.922Z,21.37
2016-07-24T00:32:51.664Z,21.39
2016-07-24T00:33:50.983Z,21.39
2016-07-24T00:34:51.716Z,21.37
2016-07-24T00:35:51.036Z,21.3
2016-07-24T00:36:51.065Z,21.39
2016-07-24T00:37:51.112Z,21.32
2016-07-24T00:38:51.124Z,21.37
2016-07-24T00:39:51.145Z,21.32
2016-07-24T00:40:51.178Z,21.29
2016-07-24T00:41:51.206Z,21.39
2016-07-24T00:42:51.235Z,21.4
2016-07-24T00:43:51.262Z,21.39
2016-07-24T00:44:51.289Z,21.4
2016-07-24T00:45:51.330Z,21.4
2016-07-24T00:46:51.355Z,21.36
2016-07-24T00:47:51.381Z,21.35
2016-07-24T00:48:51.407Z,21.36
2016-07-24T00:49:51.439Z,21.39
2016-07-24T00:50:51.463Z,21.4
2016-07-24T00:51:51.494Z,21.37
2016-07-24T00:52:51.538Z,21.36
2016-07-24T00:53:51.548Z,21.37
2016-07-24T00:54:51.580Z,21.39
2016-07-24T00:55:51.601Z,21.39
2016-07-24T00:56:52.343Z,21.37
2016-07-24T00:57:51.659Z,21.45
2016-07-24T00:58:51.695Z,21.4
2016-07-24T00:59:51.717Z,21.43
2016-07-24T01:00:51.845Z,21.5
2016-07-24T01:01:51.779Z,21.54
2016-07-24T01:02:52.521Z,21.54
2016-07-24T01:03:51.834Z,21.52
2016-07-24T01:04:51.858Z,21.52
2016-07-24T01:05:51.894Z,21.57
2016-07-24T01:06:51.914Z,21.52
2016-07-24T01:07:51.946Z,21.48
2016-07-24T01:08:51.972Z,21.5
2016-07-24T01:09:52.002Z,21.58
2016-07-24T01:10:52.038Z,21.54
2016-07-24T01:11:52.059Z,21.6
2016-07-24T01:12:52.084Z,21.64
2016-07-24T01:13:52.124Z,21.64
2016-07-24T01:14:52.144Z,21.61
2016-07-24T01:15:52.178Z,21.66
2016-07-24T01:16:52.204Z,21.52
2016-07-24T01:17:52.238Z,21.52
2016-07-24T01:18:52.970Z,21.48
2016-07-24T01:19:52.301Z,21.54
2016-07-24T01:20:52.316Z,21.54
2016-07-24T01:21:52.344Z,21.5
2016-07-24T01:22:53.077Z,21.52
2016-07-24T01:23:53.825Z,21.48
2016-07-24T01:24:52.429Z,21.51
2016-07-24T01:25:53.170Z,21.58
2016-07-24T01:26:53.196Z,21.61
2016-07-24T01:27:52.519Z,21.61
2016-07-24T01:28:52.540Z,21.6
2016-07-24T01:29:52.566Z,21.57
2016-07-24T01:30:52.598Z,21.73
2016-07-24T01:31:52.626Z,21.7
2016-07-24T01:32:52.654Z,21.69
2016-07-24T01:33:53.392Z,21.62
2016-07-24T01:34:52.725Z,21.67
2016-07-24T01:35:53.449Z,21.69
2016-07-24T01:36:52.769Z,21.7
2016-07-24T01:37:52.793Z,21.67
2016-07-24T01:38:53.536Z,21.7
2016-07-24T01:39:52.851Z,21.79
2016-07-24T01:40:52.882Z,21.79
2016-07-24T01:41:52.935Z,21.73
2016-07-24T01:42:52.951Z,21.77
2016-07-24T01:43:52.975Z,21.72
2016-07-24T01:44:52.999Z,21.75
2016-07-24T01:45:53.028Z,21.8
2016-07-24T01:46:53.052Z,21.75
2016-07-24T01:47:53.789Z,21.79
2016-07-24T01:48:53.108Z,21.77
2016-07-24T01:49:53.150Z,21.76
2016-07-24T01:50:53.179Z,21.69
2016-07-24T01:51:53.208Z,21.76
2016-07-24T01:52:53.233Z,21.77
2016-07-24T01:53:53.253Z,21.75
2016-07-24T01:54:53.278Z,21.83
2016-07-24T01:55:53.316Z,21.77
2016-07-24T01:56:53.337Z,21.73
2016-07-24T01:57:53.367Z,21.75
2016-07-24T01:58:53.394Z,21.79
2016-07-24T01:59:54.150Z,21.77
2016-07-24T02:00:53.453Z,21.8
2016-07-24T02:01:53.477Z,21.72
2016-07-24T02:02:53.509Z,21.73
2016-07-24T02:03:53.539Z,21.79
2016-07-24T02:04:53.564Z,21.8
2016-07-24T02:05:53.600Z,21.83
2016-07-24T02:06:53.623Z,21.83
2016-07-24T02:07:53.666Z,21.8
2016-07-24T02:08:53.681Z,21.8
2016-07-24T02:09:53.705Z,21.83
2016-07-24T02:10:53.738Z,21.8
2016-07-24T02:11:53.766Z,21.88
2016-07-24T02:12:53.794Z,21.83
2016-07-24T02:13:53.820Z,21.93
2016-07-24T02:14:53.874Z,21.93
2016-07-24T02:15:53.883Z,21.89
2016-07-24T02:16:53.907Z,21.92
2016-07-24T02:17:54.645Z,21.85
2016-07-24T02:18:54.677Z,21.88
2016-07-24T02:19:54.703Z,21.92
2016-07-24T02:20:54.733Z,21.92
2016-07-24T02:21:54.051Z,21.91
2016-07-24T02:22:54.093Z,21.91
2016-07-24T02:23:54.116Z,21.96
2016-07-24T02:24:54.135Z,21.95
2016-07-24T02:25:54.163Z,21.93
2016-07-24T02:26:54.193Z,21.95
2016-07-24T02:27:54.222Z,21.92
2016-07-24T02:28:54.253Z,21.93
2016-07-24T02:29:55.014Z,21.95
2016-07-24T02:30:54.308Z,21.92
2016-07-24T02:31:54.372Z,21.89
2016-07-24T02:32:55.072Z,21.95
2016-07-24T02:33:54.396Z,21.95
2016-07-24T02:34:54.419Z,21.96
2016-07-24T02:35:55.158Z,21.95
2016-07-24T02:36:54.481Z,21.98
2016-07-24T02:37:55.320Z,21.93
2016-07-24T02:38:54.548Z,21.95
2016-07-24T02:39:54.568Z,21.92
2016-07-24T02:40:54.599Z,21.89
2016-07-24T02:41:54.620Z,21.88
2016-07-24T02:42:54.647Z,21.8
2016-07-24T02:43:54.679Z,21.89
2016-07-24T02:44:55.459Z,21.98
2016-07-24T02:45:54.754Z,21.95
2016-07-24T02:46:54.769Z,21.96
2016-07-24T02:47:54.794Z,21.79
2016-07-24T02:48:55.534Z,21.89
2016-07-24T02:49:54.852Z,21.83
2016-07-24T02:50:54.879Z,21.77
2016-07-24T02:51:54.919Z,21.82
2016-07-24T02:52:54.937Z,21.85
2016-07-24T02:53:55.012Z,21.83
2016-07-24T02:54:54.996Z,21.8
2016-07-24T02:55:55.021Z,21.92
2016-07-24T02:56:55.762Z,21.83
2016-07-24T02:57:55.079Z,21.72
2016-07-24T02:58:55.109Z,21.8
2016-07-24T02:59:55.136Z,21.82
2016-07-24T03:00:55.165Z,21.76
2016-07-24T03:01:55.193Z,21.83
2016-07-24T03:02:55.221Z,21.82
2016-07-24T03:03:55.273Z,21.77
2016-07-24T03:04:55.282Z,21.85
2016-07-24T03:05:55.308Z,21.85
2016-07-24T03:06:55.336Z,21.77
2016-07-24T03:07:55.362Z,21.85
2016-07-24T03:08:55.392Z,21.88
2016-07-24T03:09:55.422Z,21.91
2016-07-24T03:10:56.161Z,21.93
2016-07-24T03:11:55.490Z,21.95
2016-07-24T03:12:55.522Z,21.88
2016-07-24T03:13:55.538Z,21.85
2016-07-24T03:14:55.565Z,21.83
2016-07-24T03:15:55.597Z,21.83
2016-07-24T03:16:56.330Z,21.75
2016-07-24T03:17:55.657Z,21.76
2016-07-24T03:18:55.705Z,21.77
2016-07-24T03:19:55.710Z,21.82
2016-07-24T03:20:55.737Z,21.79
2016-07-24T03:21:55.769Z,21.79
2016-07-24T03:22:55.793Z,21.72
2016-07-24T03:23:56.534Z,21.76
2016-07-24T03:24:56.557Z,21.82
2016-07-24T03:25:56.591Z,21.73
2016-07-24T03:26:56.637Z,21.76
2016-07-24T03:27:55.945Z,21.8
2016-07-24T03:28:55.993Z,21.77
2016-07-24T03:29:56.701Z,21.8
2016-07-24T03:30:56.022Z,21.72
2016-07-24T03:31:56.049Z,21.8
2016-07-24T03:32:56.075Z,21.8
2016-07-24T03:33:56.118Z,21.77
2016-07-24T03:34:57.553Z,21.7
2016-07-24T03:35:56.169Z,21.79
2016-07-24T03:36:56.209Z,21.77
2016-07-24T03:37:56.226Z,21.72
2016-07-24T03:38:56.253Z,21.79
2016-07-24T03:39:56.278Z,21.75
2016-07-24T03:40:56.308Z,21.79
2016-07-24T03:41:56.333Z,21.76
2016-07-24T03:42:56.371Z,21.91
2016-07-24T03:43:56.422Z,21.73
2016-07-24T03:44:56.430Z,21.83
2016-07-24T03:45:57.157Z,21.82
2016-07-24T03:46:56.474Z,21.83
2016-07-24T03:47:56.504Z,21.83
2016-07-24T03:48:56.531Z,21.85
2016-07-24T03:49:56.563Z,21.83
2016-07-24T03:50:57.314Z,21.82
2016-07-24T03:51:56.632Z,21.93
2016-07-24T03:52:56.652Z,22
2016-07-24T03:53:56.675Z,21.89
2016-07-24T03:54:56.704Z,22
2016-07-24T03:55:56.730Z,21.96
2016-07-24T03:56:56.755Z,21.95
2016-07-24T03:57:56.791Z,21.98
2016-07-24T03:58:56.842Z,21.96
2016-07-24T03:59:57.567Z,22.02
2016-07-24T04:00:57.587Z,21.98
2016-07-24T04:01:56.906Z,22
2016-07-24T04:02:57.647Z,21.99
2016-07-24T04:03:58.391Z,22.02
2016-07-24T04:04:57.701Z,22.07
2016-07-24T04:05:57.020Z,21.99
2016-07-24T04:06:57.060Z,22.04
2016-07-24T04:07:57.076Z,21.98
2016-07-24T04:08:57.105Z,21.95
2016-07-24T04:09:57.136Z,21.89
2016-07-24T04:10:57.176Z,22.02
2016-07-24T04:11:57.191Z,21.99
2016-07-24T04:12:57.224Z,21.98
2016-07-24T04:13:57.244Z,21.99
2016-07-24T04:14:57.287Z,21.96
2016-07-24T04:15:57.305Z,21.99
2016-07-24T04:16:57.347Z,21.95
2016-07-24T04:17:57.363Z,21.95
2016-07-24T04:18:57.394Z,21.89
2016-07-24T04:19:57.420Z,21.93
2016-07-24T04:20:58.163Z,21.95
2016-07-24T04:21:57.471Z,21.91
2016-07-24T04:22:57.505Z,21.88
2016-07-24T04:23:57.535Z,21.82
2016-07-24T04:24:57.558Z,21.83
2016-07-24T04:25:57.608Z,21.82
2016-07-24T04:26:57.619Z,21.79
2016-07-24T04:27:57.649Z,21.8
2016-07-24T04:28:57.682Z,21.75
2016-07-24T04:29:57.709Z,21.77
2016-07-24T04:30:57.742Z,21.82
2016-07-24T04:31:58.467Z,21.79
2016-07-24T04:32:58.495Z,21.8
2016-07-24T04:33:57.825Z,21.8
2016-07-24T04:34:57.852Z,21.83
2016-07-24T04:35:57.873Z,21.8
2016-07-24T04:36:57.915Z,21.83
2016-07-24T04:37:58.640Z,21.82
2016-07-24T04:38:57.959Z,21.82
2016-07-24T04:39:58.714Z,21.79
2016-07-24T04:40:58.030Z,21.77
2016-07-24T04:41:58.046Z,21.83
2016-07-24T04:42:58.077Z,21.76
2016-07-24T04:43:58.114Z,21.8
2016-07-24T04:44:58.130Z,21.89
2016-07-24T04:45:58.162Z,21.77
2016-07-24T04:46:58.190Z,21.79
2016-07-24T04:47:58.238Z,21.8
2016-07-24T04:48:58.244Z,21.89
2016-07-24T04:49:58.273Z,21.77
2016-07-24T04:50:58.303Z,21.8
2016-07-24T04:51:59.048Z,21.8
2016-07-24T04:52:58.359Z,21.83
2016-07-24T04:53:58.386Z,21.82
2016-07-24T04:54:59.127Z,21.83
2016-07-24T04:55:58.453Z,21.82
2016-07-24T04:56:58.474Z,21.79
2016-07-24T04:57:58.501Z,21.82
2016-07-24T04:58:58.527Z,21.85
2016-07-24T04:59:58.556Z,21.8
2016-07-24T05:00:58.587Z,21.82
2016-07-24T05:01:59.324Z,21.85
2016-07-24T05:02:58.645Z,21.72
2016-07-24T05:03:58.671Z,21.73
2016-07-24T05:04:58.698Z,21.83
2016-07-24T05:05:58.727Z,21.67
2016-07-24T05:06:58.758Z,21.69
2016-07-24T05:07:59.494Z,21.79
2016-07-24T05:08:58.812Z,21.79
2016-07-24T05:09:58.840Z,21.77
2016-07-24T05:10:58.875Z,21.8
2016-07-24T05:11:58.898Z,21.83
2016-07-24T05:12:58.929Z,21.77
2016-07-24T05:13:58.969Z,21.88
2016-07-24T05:14:58.986Z,21.8
2016-07-24T05:15:59.015Z,21.88
2016-07-24T05:16:59.039Z,21.95
2016-07-24T05:17:59.069Z,21.91
2016-07-24T05:18:59.096Z,21.93
2016-07-24T05:19:59.141Z,21.95
2016-07-24T05:20:59.174Z,21.96
2016-07-24T05:21:59.187Z,21.93
2016-07-24T05:22:59.209Z,22
2016-07-24T05:23:59.240Z,21.99
2016-07-24T05:24:59.980Z,21.99
2016-07-24T05:25:59.299Z,22
2016-07-24T05:27:00.039Z,22.07
2016-07-24T05:27:59.365Z,22.04
2016-07-24T05:28:59.394Z,21.99
2016-07-24T05:29:59.414Z,22.02
2016-07-24T05:31:00.159Z,22.11
2016-07-24T05:31:59.475Z,22.13
2016-07-24T05:32:59.499Z,22.11
2016-07-24T05:33:59.530Z,22.13
2016-07-24T05:34:59.558Z,22.13
2016-07-24T05:35:59.599Z,22.15
2016-07-24T05:36:59.624Z,22.14
2016-07-24T05:37:59.643Z,22.2
2016-07-24T05:38:59.670Z,22.23
2016-07-24T05:39:59.715Z,22.23
2016-07-24T05:40:59.736Z,22.15
2016-07-24T05:41:59.759Z,22.29
2016-07-24T05:42:59.787Z,22.32
2016-07-24T05:43:59.817Z,22.29
2016-07-24T05:44:59.844Z,22.28
2016-07-24T05:46:00.585Z,22.38
2016-07-24T05:46:59.931Z,22.36
2016-07-24T05:47:59.930Z,22.45
2016-07-24T05:49:00.668Z,22.45
2016-07-24T05:49:59.989Z,22.48
2016-07-24T05:51:00.018Z,22.44
2016-07-24T05:52:00.047Z,22.44
2016-07-24T05:53:00.071Z,22.47
2016-07-24T05:54:00.814Z,22.45
2016-07-24T05:55:00.841Z,22.54
2016-07-24T05:56:00.160Z,22.5
2016-07-24T05:57:00.192Z,22.5
2016-07-24T05:58:00.218Z,22.59
2016-07-24T05:59:00.251Z,22.69
2016-07-24T06:00:00.280Z,22.7
2016-07-24T06:01:00.308Z,22.7
2016-07-24T06:02:00.354Z,22.63
2016-07-24T06:03:00.366Z,22.69
2016-07-24T06:04:00.394Z,22.72
2016-07-24T06:05:00.422Z,22.65
2016-07-24T06:06:00.451Z,22.8
2016-07-24T06:07:00.488Z,22.76
2016-07-24T06:08:00.511Z,22.8
2016-07-24T06:09:00.568Z,22.88
2016-07-24T06:10:00.580Z,22.9
2016-07-24T06:11:00.598Z,22.81
2016-07-24T06:12:01.336Z,22.85
2016-07-24T06:13:00.657Z,22.93
2016-07-24T06:14:00.684Z,22.9
2016-07-24T06:15:00.716Z,22.96
2016-07-24T06:16:00.744Z,23.02
2016-07-24T06:17:00.781Z,23
2016-07-24T06:18:00.802Z,23.05
2016-07-24T06:19:00.834Z,23.09
2016-07-24T06:20:01.572Z,23.03
2016-07-24T06:21:01.602Z,23.06
2016-07-24T06:22:00.920Z,23.09
2016-07-24T06:23:00.946Z,23.15
2016-07-24T06:24:00.978Z,23.18
2016-07-24T06:25:01.728Z,23.27
2016-07-24T06:26:01.049Z,23.21
2016-07-24T06:27:01.077Z,23.27
2016-07-24T06:28:01.097Z,23.27
2016-07-24T06:29:01.126Z,23.32
2016-07-24T06:30:01.155Z,23.37
2016-07-24T06:31:01.184Z,23.28
2016-07-24T06:32:01.214Z,23.41
2016-07-24T06:33:01.242Z,23.5
2016-07-24T06:34:01.486Z,23.43
2016-07-24T06:35:01.303Z,23.48
2016-07-24T06:36:01.332Z,23.5
2016-07-24T06:37:01.380Z,23.61
2016-07-24T06:38:01.388Z,23.54
2016-07-24T06:39:01.422Z,23.63
2016-07-24T06:40:02.210Z,23.61
2016-07-24T06:41:01.487Z,23.62
2016-07-24T06:42:01.516Z,23.61
2016-07-24T06:43:02.249Z,23.69
2016-07-24T06:44:01.582Z,23.66
2016-07-24T06:45:01.597Z,23.71
2016-07-24T06:46:01.629Z,23.74
2016-07-24T06:47:01.661Z,23.74
2016-07-24T06:48:01.688Z,23.78
2016-07-24T06:49:02.429Z,23.73
2016-07-24T06:50:02.456Z,23.78
2016-07-24T06:51:01.774Z,23.81
2016-07-24T06:52:01.823Z,23.83
2016-07-24T06:53:01.834Z,23.88
2016-07-24T06:54:02.579Z,23.83
2016-07-24T06:55:01.892Z,23.91
2016-07-24T06:56:01.926Z,23.88
2016-07-24T06:57:01.958Z,23.95
2016-07-24T06:58:01.986Z,23.99
2016-07-24T06:59:02.028Z,24.01
2016-07-24T07:00:02.047Z,23.92
2016-07-24T07:01:02.074Z,23.99
2016-07-24T07:02:02.104Z,24.03
2016-07-24T07:03:02.142Z,24.06
2016-07-24T07:04:02.165Z,24.08
2016-07-24T07:05:02.194Z,24.02
2016-07-24T07:06:02.235Z,24.03
2016-07-24T07:07:02.259Z,24.06
2016-07-24T07:08:02.292Z,24.13
2016-07-24T07:09:02.310Z,24.24
2016-07-24T07:10:02.349Z,24.21
2016-07-24T07:11:02.377Z,24.29
2016-07-24T07:12:02.408Z,24.3
2016-07-24T07:13:03.166Z,24.28
2016-07-24T07:14:02.467Z,24.28
2016-07-24T07:15:02.497Z,24.32
2016-07-24T07:16:02.535Z,24.33
2016-07-24T07:17:02.571Z,24.28
2016-07-24T07:18:02.587Z,24.43
2016-07-24T07:19:02.615Z,24.42
2016-07-24T07:20:02.647Z,24.43
2016-07-24T07:21:02.683Z,24.51
2016-07-24T07:22:02.732Z,24.45
2016-07-24T07:23:02.740Z,24.57
2016-07-24T07:24:02.776Z,24.5
2016-07-24T07:25:02.800Z,24.66
2016-07-24T07:26:02.833Z,24.69
2016-07-24T07:27:02.859Z,24.76
2016-07-24T07:28:02.891Z,24.76
2016-07-24T07:29:02.920Z,24.74
2016-07-24T07:30:02.953Z,24.77
2016-07-24T07:31:03.693Z,24.84
2016-07-24T07:32:03.015Z,24.81
2016-07-24T07:33:03.061Z,24.88
2016-07-24T07:34:03.073Z,24.89
2016-07-24T07:35:03.821Z,24.92
2016-07-24T07:36:03.135Z,24.99
2016-07-24T07:37:03.168Z,25.08
2016-07-24T07:38:03.198Z,25.13
2016-07-24T07:39:03.228Z,25.16
2016-07-24T07:40:03.269Z,25.14
2016-07-24T07:41:03.295Z,25.14
2016-07-24T07:42:03.322Z,25.17
2016-07-24T07:43:03.353Z,25.18
2016-07-24T07:44:03.390Z,25.21
2016-07-24T07:45:03.413Z,25.23
2016-07-24T07:46:03.445Z,25.18
2016-07-24T07:47:03.475Z,25.33
2016-07-24T07:48:03.509Z,25.32
2016-07-24T07:49:03.555Z,25.26
2016-07-24T07:50:03.571Z,25.33
2016-07-24T07:51:03.602Z,25.26
2016-07-24T07:52:03.629Z,25.29
2016-07-24T07:53:03.663Z,25.35
2016-07-24T07:54:03.697Z,25.43
2016-07-24T07:55:03.726Z,25.38
2016-07-24T07:56:03.776Z,25.38
2016-07-24T07:57:03.787Z,25.38
2016-07-24T07:58:03.818Z,25.41
2016-07-24T07:59:03.849Z,25.46
2016-07-24T08:00:03.892Z,25.5
2016-07-24T08:01:03.914Z,25.59
2016-07-24T08:02:03.943Z,25.54
2016-07-24T08:03:03.973Z,25.46
2016-07-24T08:04:04.713Z,25.43
2016-07-24T08:05:04.746Z,25.4
2016-07-24T08:06:04.083Z,25.41
2016-07-24T08:07:04.100Z,25.51
2016-07-24T08:08:04.128Z,25.59
2016-07-24T08:09:04.162Z,25.53
2016-07-24T08:10:04.193Z,25.59
2016-07-24T08:11:04.225Z,25.55
2016-07-24T08:12:04.257Z,25.63
2016-07-24T08:13:04.290Z,25.66
2016-07-24T08:14:04.318Z,25.66
2016-07-24T08:15:05.059Z,25.72
2016-07-24T08:16:04.382Z,25.78
2016-07-24T08:17:04.413Z,25.77
2016-07-24T08:18:04.444Z,25.66
2016-07-24T08:19:04.476Z,25.69
2016-07-24T08:20:04.514Z,25.66
2016-07-24T08:21:04.537Z,25.68
2016-07-24T08:22:04.578Z,25.7
2016-07-24T08:23:05.313Z,25.75
2016-07-24T08:24:04.628Z,25.7
2016-07-24T08:25:04.664Z,25.7
2016-07-24T08:26:05.411Z,25.68
2016-07-24T08:27:04.729Z,25.72
2016-07-24T08:28:05.492Z,25.68
2016-07-24T08:29:04.788Z,25.7
2016-07-24T08:30:04.818Z,25.68
2016-07-24T08:31:04.852Z,25.68
2016-07-24T08:32:04.886Z,25.68
2016-07-24T08:33:04.913Z,25.72
2016-07-24T08:34:04.947Z,25.75
2016-07-24T08:35:04.978Z,25.83
2016-07-24T08:36:05.721Z,25.84
2016-07-24T08:37:05.040Z,25.88
2016-07-24T08:38:05.069Z,25.9
2016-07-24T08:39:05.105Z,25.87
2016-07-24T08:40:05.133Z,25.88
2016-07-24T08:41:05.163Z,25.88
2016-07-24T08:42:05.195Z,25.93
2016-07-24T08:43:05.228Z,25.93
2016-07-24T08:44:05.256Z,25.98
2016-07-24T08:45:06.019Z,26.03
2016-07-24T08:46:05.322Z,26.05
2016-07-24T08:47:05.355Z,26.09
2016-07-24T08:48:05.384Z,26.18
2016-07-24T08:49:05.627Z,26.25
2016-07-24T08:50:05.443Z,26.38
2016-07-24T08:51:06.191Z,26.36
2016-07-24T08:52:05.512Z,26.38
2016-07-24T08:53:06.251Z,26.37
2016-07-24T08:54:05.596Z,26.34
2016-07-24T08:55:05.603Z,26.38
2016-07-24T08:56:06.349Z,26.4
2016-07-24T08:57:06.376Z,26.36
2016-07-24T08:58:05.700Z,26.33
2016-07-24T08:59:05.731Z,26.52
2016-07-24T09:00:05.766Z,26.47
2016-07-24T09:01:05.798Z,26.59
2016-07-24T09:02:06.541Z,26.6
2016-07-24T09:03:05.860Z,26.55
2016-07-24T09:04:05.910Z,26.59
2016-07-24T09:05:05.926Z,26.59
2016-07-24T09:06:05.954Z,26.6
2016-07-24T09:07:06.697Z,26.77
2016-07-24T09:08:06.113Z,26.75
2016-07-24T09:09:06.074Z,26.88
2016-07-24T09:10:06.081Z,26.83
2016-07-24T09:11:06.118Z,26.92
2016-07-24T09:12:06.145Z,26.93
2016-07-24T09:13:06.180Z,26.9
2016-07-24T09:14:06.208Z,26.93
2016-07-24T09:15:06.244Z,26.93
2016-07-24T09:16:06.275Z,26.95
2016-07-24T09:17:06.309Z,26.93
2016-07-24T09:18:06.337Z,26.97
2016-07-24T09:19:06.395Z,26.9
2016-07-24T09:20:07.116Z,26.9
2016-07-24T09:21:06.443Z,26.93
2016-07-24T09:22:06.467Z,26.9
2016-07-24T09:23:06.514Z,26.96
2016-07-24T09:24:06.531Z,27.05
2016-07-24T09:25:06.563Z,27.07
2016-07-24T09:26:07.359Z,27.14
2016-07-24T09:27:07.341Z,27.14
2016-07-24T09:28:06.662Z,27.17
2016-07-24T09:29:06.719Z,27.18
2016-07-24T09:30:06.929Z,27.21
2016-07-24T09:31:06.758Z,27.18
2016-07-24T09:32:06.794Z,27.18
2016-07-24T09:33:07.530Z,27.17
2016-07-24T09:34:07.568Z,27.25
2016-07-24T09:35:07.634Z,27.17
2016-07-24T09:36:06.921Z,27.21
2016-07-24T09:37:06.954Z,27.26
2016-07-24T09:38:06.984Z,27.26
2016-07-24T09:39:07.018Z,27.22
2016-07-24T09:40:07.049Z,27.32
2016-07-24T09:41:07.084Z,27.35
2016-07-24T09:42:07.115Z,27.35
2016-07-24T09:43:07.149Z,27.42
2016-07-24T09:44:07.246Z,27.44
2016-07-24T09:45:07.236Z,27.45
2016-07-24T09:46:07.956Z,27.4
2016-07-24T09:47:07.277Z,27.44
2016-07-24T09:48:07.313Z,27.45
2016-07-24T09:49:08.054Z,27.47
2016-07-24T09:50:07.376Z,27.47
2016-07-24T09:51:07.411Z,27.49
2016-07-24T09:52:07.454Z,27.55
2016-07-24T09:53:08.184Z,27.68
2016-07-24T09:54:08.224Z,27.63
2016-07-24T09:55:07.538Z,27.67
2016-07-24T09:56:07.574Z,27.65
2016-07-24T09:57:08.314Z,27.58
2016-07-24T09:58:07.639Z,27.54
2016-07-24T09:59:07.669Z,27.58
2016-07-24T10:00:07.718Z,27.55
2016-07-24T10:01:07.743Z,27.48
2016-07-24T10:02:08.483Z,27.58
2016-07-24T10:03:07.802Z,27.54
2016-07-24T10:04:08.544Z,27.39
2016-07-24T10:05:07.868Z,27.59
2016-07-24T10:06:07.898Z,27.7
2016-07-24T10:07:07.928Z,27.74
2016-07-24T10:08:07.963Z,27.85
2016-07-24T10:09:08.013Z,27.83
2016-07-24T10:10:08.032Z,27.83
2016-07-24T10:11:08.065Z,27.87
2016-07-24T10:12:08.100Z,27.87
2016-07-24T10:13:08.129Z,27.95
2016-07-24T10:14:08.164Z,27.98
2016-07-24T10:15:08.908Z,28.12
2016-07-24T10:16:08.226Z,28.04
2016-07-24T10:17:08.267Z,28.11
2016-07-24T10:18:08.317Z,28.14
2016-07-24T10:19:08.325Z,28.08
2016-07-24T10:20:08.361Z,28.11
2016-07-24T10:21:08.392Z,28.05
2016-07-24T10:22:08.428Z,28.11
2016-07-24T10:23:08.458Z,28.07
2016-07-24T10:24:08.491Z,28.08
2016-07-24T10:25:08.530Z,28.1
2016-07-24T10:26:09.270Z,28.12
2016-07-24T10:27:08.600Z,28.14
2016-07-24T10:28:08.624Z,28.1
2016-07-24T10:29:08.658Z,28.15
2016-07-24T10:30:08.689Z,28.19
2016-07-24T10:31:08.725Z,28.39
2016-07-24T10:32:08.753Z,28.45
2016-07-24T10:33:08.803Z,28.42
2016-07-24T10:34:08.826Z,28.41
2016-07-24T10:35:08.857Z,28.54
2016-07-24T10:36:09.596Z,28.52
2016-07-24T10:37:08.927Z,28.63
2016-07-24T10:38:08.958Z,28.66
2016-07-24T10:39:09.703Z,28.64
2016-07-24T10:40:09.739Z,28.54
2016-07-24T10:41:09.058Z,28.57
2016-07-24T10:42:09.106Z,28.6
2016-07-24T10:43:09.126Z,28.42
2016-07-24T10:44:09.155Z,28.42
2016-07-24T10:45:09.195Z,28.35
2016-07-24T10:46:10.647Z,28.45
2016-07-24T10:47:09.257Z,28.42
2016-07-24T10:48:10.002Z,28.47
2016-07-24T10:49:10.060Z,28.62
2016-07-24T10:50:09.361Z,28.57
2016-07-24T10:51:09.396Z,28.66
2016-07-24T10:52:09.625Z,28.69
2016-07-24T10:53:09.459Z,28.69
2016-07-24T10:54:09.491Z,28.7
2016-07-24T10:55:09.527Z,28.72
2016-07-24T10:56:09.556Z,28.69
2016-07-24T10:57:09.591Z,28.66
2016-07-24T10:58:09.626Z,28.67
2016-07-24T10:59:10.379Z,28.82
2016-07-24T11:00:09.704Z,28.81
2016-07-24T11:01:09.727Z,28.82
2016-07-24T11:02:09.762Z,28.84
2016-07-24T11:03:09.793Z,28.93
2016-07-24T11:04:09.830Z,28.89
2016-07-24T11:05:09.862Z,28.82
2016-07-24T11:06:09.894Z,28.88
2016-07-24T11:07:09.931Z,28.88
2016-07-24T11:08:09.980Z,28.89
2016-07-24T11:09:09.996Z,28.97
2016-07-24T11:10:10.029Z,28.98
2016-07-24T11:11:10.062Z,28.96
2016-07-24T11:12:10.101Z,29.04
2016-07-24T11:13:10.130Z,28.98
2016-07-24T11:14:10.872Z,29.01
2016-07-24T11:15:10.201Z,29.05
2016-07-24T11:16:10.231Z,28.98
2016-07-24T11:17:10.267Z,28.98
2016-07-24T11:18:10.302Z,28.93
2016-07-24T11:19:10.334Z,28.84
2016-07-24T11:20:10.368Z,28.91
2016-07-24T11:21:11.110Z,28.78
2016-07-24T11:22:10.435Z,28.78
2016-07-24T11:23:10.468Z,28.74
2016-07-24T11:24:10.503Z,28.79
2016-07-24T11:25:10.536Z,28.81
2016-07-24T11:26:10.579Z,28.79
2016-07-24T11:27:10.599Z,28.82
2016-07-24T11:28:11.349Z,28.84
2016-07-24T11:29:10.664Z,28.84
2016-07-24T11:30:10.701Z,28.88
2016-07-24T11:31:10.732Z,28.89
2016-07-24T11:32:11.493Z,28.86
2016-07-24T11:33:10.799Z,28.88
2016-07-24T11:34:10.835Z,28.98
2016-07-24T11:35:10.888Z,29.07
2016-07-24T11:36:10.903Z,29.13
2016-07-24T11:37:10.937Z,29.14
2016-07-24T11:38:10.978Z,29.26
2016-07-24T11:39:11.011Z,29.27
2016-07-24T11:40:11.038Z,29.27
2016-07-24T11:41:11.084Z,29.34
2016-07-24T11:42:11.113Z,29.36
2016-07-24T11:43:11.138Z,29.41
2016-07-24T11:44:11.174Z,29.34
2016-07-24T11:45:11.203Z,29.56
2016-07-24T11:46:11.443Z,29.41
2016-07-24T11:47:11.275Z,29.44
2016-07-24T11:48:11.305Z,29.34
2016-07-24T11:49:11.369Z,29.32
2016-07-24T11:50:11.379Z,29.39
2016-07-24T11:51:11.411Z,29.51
2016-07-24T11:52:11.474Z,29.54
2016-07-24T11:53:11.477Z,29.61
2016-07-24T11:54:11.513Z,29.65
2016-07-24T11:55:12.256Z,29.72
2016-07-24T11:56:11.581Z,29.68
2016-07-24T11:57:11.615Z,29.82
2016-07-24T11:58:11.645Z,29.73
2016-07-24T11:59:26.578Z,29.84
2016-07-24T12:00:11.716Z,29.86
2016-07-24T12:01:11.754Z,29.84
2016-07-24T12:02:12.497Z,29.86
2016-07-24T12:03:11.831Z,29.82
2016-07-24T12:04:11.852Z,29.76
2016-07-24T12:05:11.892Z,29.81
2016-07-24T12:06:12.632Z,29.76
2016-07-24T12:07:11.961Z,29.84
2016-07-24T12:08:12.700Z,29.93
2016-07-24T12:09:12.735Z,29.97
2016-07-24T12:10:12.059Z,29.98
2016-07-24T12:11:12.093Z,29.94
2016-07-24T12:12:12.126Z,29.94
2016-07-24T12:13:12.871Z,30.06
2016-07-24T12:14:12.198Z,30.08
2016-07-24T12:15:12.943Z,30.1
2016-07-24T12:16:12.981Z,30.12
2016-07-24T12:17:12.297Z,30.24
2016-07-24T12:18:13.047Z,30.21
2016-07-24T12:19:12.365Z,30.16
2016-07-24T12:20:13.149Z,30.25
2016-07-24T12:21:12.439Z,30.15
2016-07-24T12:22:12.480Z,30.23
2016-07-24T12:23:12.518Z,30.25
2016-07-24T12:24:12.549Z,30.31
2016-07-24T12:25:13.289Z,30.27
2016-07-24T12:26:12.610Z,30.44
2016-07-24T12:27:13.358Z,30.43
2016-07-24T12:28:12.682Z,30.53
2016-07-24T12:29:14.141Z,30.51
2016-07-24T12:30:12.754Z,30.54
2016-07-24T12:31:13.490Z,30.57
2016-07-24T12:32:12.820Z,30.51
2016-07-24T12:33:13.572Z,30.57
2016-07-24T12:34:12.902Z,30.51
2016-07-24T12:35:12.927Z,30.61
2016-07-24T12:36:13.675Z,30.4
2016-07-24T12:37:13.002Z,30.44
2016-07-24T12:38:13.029Z,30.46
2016-07-24T12:39:14.486Z,30.46
2016-07-24T12:40:13.107Z,30.4
2016-07-24T12:41:13.845Z,30.46
2016-07-24T12:42:13.182Z,30.4
2016-07-24T12:43:13.204Z,30.37
2016-07-24T12:44:13.238Z,30.28
2016-07-24T12:45:13.281Z,30.31
2016-07-24T12:46:13.305Z,30.3
2016-07-24T12:47:14.075Z,30.21
2016-07-24T12:48:14.091Z,30.21
2016-07-24T12:49:13.409Z,30.19
2016-07-24T12:50:14.168Z,30.18
2016-07-24T12:51:13.478Z,30.18
2016-07-24T12:52:14.229Z,30.13
2016-07-24T12:53:13.542Z,30.13
2016-07-24T12:54:13.580Z,30.12
2016-07-24T12:55:13.622Z,30.13
2016-07-24T12:56:13.645Z,30.18